createdAt,value
2023-03-11T00:02:14.004Z,2.97
2023-03-11T00:04:40.509Z,5.75
2023-03-11T00:07:09.236Z,3.50
2023-03-11T00:09:35.834Z,3.05
2023-03-11T00:12:02.646Z,3.63
2023-03-11T00:14:29.280Z,2.05
2023-03-11T00:16:55.790Z,2.92
2023-03-11T00:19:22.290Z,3.45
2023-03-11T00:21:48.765Z,5.13
2023-03-11T00:24:15.229Z,2.28
2023-03-11T00:26:41.667Z,5.55
2023-03-11T00:29:08.229Z,2.58
2023-03-11T00:31:34.764Z,5.32
2023-03-11T00:34:01.259Z,6.10
2023-03-11T00:36:31.566Z,5.70
2023-03-11T00:38:59.340Z,2.28
2023-03-11T00:41:26.209Z,4.25
2023-03-11T00:43:52.792Z,4.68
2023-03-11T00:46:19.510Z,3.47
2023-03-11T00:48:45.907Z,2.63
2023-03-11T00:51:15.149Z,3.50
2023-03-11T00:53:42.926Z,3.60
2023-03-11T00:56:14.938Z,4.22
2023-03-11T00:58:43.968Z,5.03
2023-03-11T01:01:13.052Z,4.45
2023-03-11T01:03:40.462Z,3.13
2023-03-11T01:06:07.462Z,3.00
2023-03-11T01:08:34.374Z,1.20
2023-03-11T01:11:01.465Z,4.57
2023-03-11T01:13:29.540Z,4.63
2023-03-11T01:15:57.234Z,2.15
2023-03-11T01:18:24.453Z,3.08
2023-03-11T01:20:51.581Z,7.88
2023-03-11T01:23:19.444Z,1.95
2023-03-11T01:25:46.722Z,1.48
2023-03-11T01:28:13.426Z,3.90
2023-03-11T01:30:41.579Z,4.63
2023-03-11T01:33:13.433Z,3.08
2023-03-11T01:35:42.187Z,3.28
2023-03-11T01:38:08.686Z,2.08
2023-03-11T01:40:42.616Z,2.08
2023-03-11T01:43:45.406Z,4.05
2023-03-11T01:46:42.700Z,4.40
2023-03-11T01:49:12.074Z,3.15
2023-03-11T01:54:13.100Z,4.25
2023-03-11T01:56:42.414Z,2.20
2023-03-11T01:59:12.765Z,2.00
2023-03-11T02:01:48.361Z,2.63
2023-03-11T02:04:16.104Z,3.20
2023-03-11T02:06:42.795Z,3.83
2023-03-11T02:09:09.458Z,1.50
2023-03-11T02:11:36.467Z,4.28
2023-03-11T02:14:06.550Z,2.58
2023-03-11T02:16:33.211Z,2.03
2023-03-11T02:19:09.161Z,1.92
2023-03-11T02:21:36.069Z,3.30
2023-03-11T02:24:28.006Z,2.10
2023-03-11T02:27:05.563Z,3.28
2023-03-11T02:29:33.658Z,3.42
2023-03-11T02:32:06.242Z,6.88
2023-03-11T02:34:35.318Z,3.25
2023-03-11T02:37:05.584Z,5.53
2023-03-11T02:39:42.135Z,4.53
2023-03-11T02:42:24.792Z,1.05
2023-03-11T02:45:12.295Z,6.10
2023-03-11T02:47:40.530Z,2.35
2023-03-11T02:50:13.756Z,3.05
2023-03-11T02:52:40.248Z,4.65
2023-03-11T02:55:08.491Z,3.05
2023-03-11T02:57:34.936Z,1.58
2023-03-11T03:00:08.609Z,4.20
2023-03-11T03:02:43.425Z,7.82
2023-03-11T03:05:11.444Z,5.10
2023-03-11T03:07:38.133Z,1.88
2023-03-11T03:10:06.337Z,2.30
2023-03-11T03:12:32.784Z,4.03
2023-03-11T03:14:59.266Z,1.48
2023-03-11T03:17:25.993Z,9.43
2023-03-11T03:19:52.524Z,1.15
2023-03-11T03:22:19.048Z,1.88
2023-03-11T03:24:46.387Z,2.45
2023-03-11T03:27:12.841Z,2.95
2023-03-11T03:29:40.469Z,1.08
2023-03-11T03:32:07.533Z,1.85
2023-03-11T03:34:34.477Z,6.57
2023-03-11T03:37:01.012Z,2.95
2023-03-11T03:39:30.379Z,2.50
2023-03-11T03:41:57.172Z,7.88
2023-03-11T03:44:26.125Z,1.52
2023-03-11T03:46:52.609Z,1.63
2023-03-11T03:49:19.318Z,3.90
2023-03-11T03:51:46.573Z,1.20
2023-03-11T03:54:21.080Z,2.42
2023-03-11T03:56:47.575Z,1.00
2023-03-11T03:59:14.106Z,1.58
2023-03-11T04:01:46.157Z,3.08
2023-03-11T04:04:12.691Z,1.17
2023-03-11T04:06:39.278Z,1.05
2023-03-11T04:09:07.134Z,2.58
2023-03-11T04:11:35.007Z,0.82
2023-03-11T04:14:03.897Z,4.65
2023-03-11T04:16:32.788Z,3.70
2023-03-11T04:19:07.053Z,1.83
2023-03-11T04:21:34.696Z,5.60
2023-03-11T04:24:01.572Z,0.85
2023-03-11T04:26:32.410Z,2.40
2023-03-11T04:28:59.083Z,0.77
2023-03-11T04:31:28.434Z,3.13
2023-03-11T04:33:56.025Z,1.85
2023-03-11T04:36:22.736Z,3.70
2023-03-11T04:38:49.545Z,1.77
2023-03-11T04:41:16.771Z,1.40
2023-03-11T04:43:44.538Z,3.13
2023-03-11T04:46:11.181Z,1.55
2023-03-11T04:48:39.693Z,1.48
2023-03-11T04:51:07.694Z,2.22
2023-03-11T04:53:34.632Z,2.25
2023-03-11T04:56:01.577Z,1.40
2023-03-11T04:58:28.862Z,4.55
2023-03-11T05:00:56.254Z,5.13
2023-03-11T05:03:23.113Z,1.58
2023-03-11T05:05:50.025Z,2.05
2023-03-11T05:10:45.618Z,1.65
2023-03-11T05:13:12.174Z,6.93
2023-03-11T05:15:40.300Z,1.00
2023-03-11T05:18:07.508Z,5.82
2023-03-11T05:20:36.206Z,2.00
2023-03-11T05:23:03.703Z,1.45
2023-03-11T05:25:32.256Z,1.17
2023-03-11T05:27:58.944Z,2.03
2023-03-11T05:30:25.624Z,1.55
2023-03-11T05:32:52.459Z,2.92
2023-03-11T05:35:20.691Z,5.95
2023-03-11T05:37:49.649Z,2.30
2023-03-11T05:40:17.818Z,2.78
2023-03-11T05:42:44.338Z,3.20
2023-03-11T05:45:13.353Z,1.95
2023-03-11T05:47:42.334Z,1.35
2023-03-11T05:50:11.984Z,3.75
2023-03-11T05:52:39.662Z,0.82
2023-03-11T05:55:06.815Z,6.38
2023-03-11T05:57:33.615Z,5.43
2023-03-11T06:00:01.058Z,1.48
2023-03-11T06:02:27.544Z,1.88
2023-03-11T06:04:54.788Z,1.77
2023-03-11T06:07:21.346Z,3.95
2023-03-11T06:09:50.256Z,1.75
2023-03-11T06:15:13.355Z,3.22
2023-03-11T06:17:40.810Z,1.02
2023-03-11T06:20:09.881Z,4.72
2023-03-11T06:22:39.642Z,1.05
2023-03-11T06:25:07.957Z,1.65
2023-03-11T06:27:35.018Z,2.42
2023-03-11T06:30:02.697Z,0.82
2023-03-11T06:32:35.373Z,11.43
2023-03-11T06:35:01.952Z,1.33
2023-03-11T06:37:28.634Z,2.90
2023-03-11T06:39:56.218Z,6.15
2023-03-11T06:42:24.672Z,1.58
2023-03-11T06:44:53.379Z,3.30
2023-03-11T06:47:20.285Z,4.60
2023-03-11T06:49:47.604Z,2.55
2023-03-11T06:52:14.119Z,3.53
2023-03-11T06:54:40.703Z,1.95
2023-03-11T06:57:09.032Z,1.60
2023-03-11T06:59:36.612Z,1.45
2023-03-11T07:02:05.526Z,16.83
2023-03-11T07:04:33.107Z,3.58
2023-03-11T07:06:59.659Z,2.95
2023-03-11T07:09:27.708Z,2.95
2023-03-11T07:11:54.451Z,3.20
2023-03-11T07:14:27.479Z,2.78
2023-03-11T07:16:56.133Z,1.85
2023-03-11T07:19:28.605Z,2.72
2023-03-11T07:21:55.030Z,3.15
2023-03-11T07:24:21.896Z,5.55
2023-03-11T07:26:48.445Z,3.75
2023-03-11T07:29:15.183Z,4.93
2023-03-11T07:31:41.883Z,5.20
2023-03-11T07:34:14.164Z,2.75
2023-03-11T07:36:42.275Z,5.85
2023-03-11T07:39:14.090Z,3.08
2023-03-11T07:41:40.609Z,5.18
2023-03-11T07:44:09.849Z,4.13
2023-03-11T07:46:36.466Z,4.22
2023-03-11T07:49:03.670Z,2.28
2023-03-11T07:51:33.238Z,2.90
2023-03-11T07:54:00.918Z,2.33
2023-03-11T07:56:31.081Z,2.88
2023-03-11T07:58:59.082Z,2.70
2023-03-11T08:01:30.374Z,2.92
2023-03-11T08:03:58.612Z,2.35
2023-03-11T08:06:29.075Z,4.25
2023-03-11T08:08:55.559Z,2.17
2023-03-11T08:11:22.538Z,4.07
2023-03-11T08:13:50.252Z,3.80
2023-03-11T08:16:21.228Z,2.53
2023-03-11T08:18:49.689Z,1.73
2023-03-11T08:21:18.759Z,2.35
2023-03-11T08:23:47.830Z,3.47
2023-03-11T08:28:43.520Z,1.75
2023-03-11T08:31:24.145Z,3.88
2023-03-11T08:33:52.320Z,4.05
2023-03-11T08:36:19.850Z,3.22
2023-03-11T08:38:46.752Z,3.20
2023-03-11T08:41:14.397Z,2.33
2023-03-11T08:43:42.275Z,3.50
2023-03-11T08:46:09.163Z,3.58
2023-03-11T08:48:37.626Z,1.15
2023-03-11T08:51:10.641Z,3.10
2023-03-11T08:53:37.658Z,3.83
2023-03-11T08:56:04.473Z,2.88
2023-03-11T08:58:30.960Z,3.83
2023-03-11T09:00:57.480Z,3.75
2023-03-11T09:03:24.000Z,3.17
2023-03-11T09:05:57.238Z,4.20
2023-03-11T09:08:23.764Z,3.17
2023-03-11T09:10:50.213Z,2.70
2023-03-11T09:13:16.708Z,4.55
2023-03-11T09:15:43.166Z,2.95
2023-03-11T09:18:13.958Z,3.17
2023-03-11T09:20:41.657Z,1.33
2023-03-11T09:23:09.176Z,2.53
2023-03-11T09:25:35.676Z,5.05
2023-03-11T09:28:02.227Z,3.45
2023-03-11T09:30:28.867Z,2.75
2023-03-11T09:32:55.482Z,1.83
2023-03-11T09:35:22.287Z,2.05
2023-03-11T09:37:48.794Z,4.80
2023-03-11T09:40:17.616Z,3.55
2023-03-11T09:43:23.627Z,4.72
2023-03-11T09:46:01.082Z,2.53
2023-03-11T09:48:53.005Z,2.58
2023-03-11T09:51:32.681Z,2.33
2023-03-11T09:54:04.240Z,3.00
2023-03-11T09:56:33.909Z,5.30
2023-03-11T09:59:06.306Z,2.28
2023-03-11T10:01:37.350Z,2.60
2023-03-11T10:04:16.632Z,3.08
2023-03-11T10:06:47.657Z,1.52
2023-03-11T10:09:52.032Z,3.00
2023-03-11T10:12:27.275Z,3.67
2023-03-11T10:15:02.692Z,2.35
2023-03-11T10:18:03.196Z,6.05
2023-03-11T10:21:04.305Z,4.82
2023-03-11T10:24:04.565Z,2.85
2023-03-11T10:27:02.337Z,4.18
2023-03-11T10:30:08.980Z,2.42
2023-03-11T10:32:44.913Z,2.28
2023-03-11T10:35:21.917Z,2.50
2023-03-11T10:37:54.800Z,3.30
2023-03-11T10:40:35.261Z,5.05
2023-03-11T10:43:12.399Z,1.42
2023-03-11T10:45:43.300Z,2.65
2023-03-11T10:48:15.755Z,3.70
2023-03-11T10:50:50.873Z,3.28
2023-03-11T10:53:20.212Z,2.75
2023-03-11T10:55:58.734Z,3.83
2023-03-11T10:58:28.384Z,2.92
2023-03-11T11:01:07.720Z,2.83
2023-03-11T11:03:34.845Z,3.97
2023-03-11T11:06:07.555Z,1.42
2023-03-11T11:08:34.384Z,2.65
2023-03-11T11:11:03.364Z,3.88
2023-03-11T11:13:34.279Z,4.80
2023-03-11T11:16:03.489Z,1.85
2023-03-11T11:18:46.277Z,4.38
2023-03-11T11:21:37.200Z,2.40
2023-03-11T11:24:12.757Z,4.00
2023-03-11T11:26:39.279Z,2.92
2023-03-11T11:29:09.026Z,2.90
2023-03-11T11:31:44.590Z,4.25
2023-03-11T11:34:33.618Z,1.80
2023-03-11T11:37:04.179Z,3.38
2023-03-11T11:39:38.698Z,3.60
2023-03-11T11:44:34.565Z,4.25
2023-03-11T11:47:13.430Z,3.90
2023-03-11T11:49:48.945Z,4.93
2023-03-11T11:52:23.662Z,1.77
2023-03-11T11:54:58.829Z,2.20
2023-03-11T11:57:25.524Z,2.30
2023-03-11T11:59:52.089Z,2.50
2023-03-11T12:02:41.454Z,2.97
2023-03-11T12:05:17.264Z,3.85
2023-03-11T12:08:00.023Z,2.08
2023-03-11T12:10:32.726Z,1.88
2023-03-11T12:13:17.880Z,3.50
2023-03-11T12:15:53.232Z,3.38
2023-03-11T12:18:35.883Z,5.38
2023-03-11T12:21:31.433Z,2.45
2023-03-11T12:24:35.782Z,4.22
2023-03-11T12:27:10.668Z,4.68
2023-03-11T12:34:48.832Z,2.42
2023-03-11T12:39:44.770Z,3.22
2023-03-11T12:42:11.149Z,1.80
2023-03-11T12:44:39.026Z,2.92
2023-03-11T12:47:08.265Z,3.90
2023-03-11T12:49:43.922Z,3.50
2023-03-11T12:52:16.042Z,1.67
2023-03-11T12:55:01.304Z,2.17
2023-03-11T12:57:36.362Z,3.72
2023-03-11T13:00:23.003Z,2.63
2023-03-11T13:03:04.859Z,2.97
2023-03-11T13:05:58.962Z,2.80
2023-03-11T13:09:03.990Z,6.22
2023-03-11T13:11:33.405Z,6.50
2023-03-11T13:14:11.912Z,3.60
2023-03-11T13:16:40.188Z,1.52
2023-03-11T13:19:31.997Z,1.35
2023-03-11T13:22:00.073Z,1.92
2023-03-11T13:24:26.906Z,2.45
2023-03-11T13:27:07.895Z,2.63
2023-03-11T13:29:44.419Z,1.65
2023-03-11T13:32:35.097Z,0.73
2023-03-11T13:35:28.461Z,3.17
2023-03-11T13:38:03.817Z,2.13
2023-03-11T13:40:38.399Z,2.92
2023-03-11T13:43:11.563Z,1.90
2023-03-11T13:45:38.840Z,1.85
2023-03-11T13:48:16.530Z,2.38
2023-03-11T13:50:51.978Z,2.00
2023-03-11T13:53:28.801Z,2.20
2023-03-11T13:55:55.312Z,2.78
2023-03-11T13:58:24.913Z,3.25
2023-03-11T14:01:02.385Z,1.88
2023-03-11T14:03:36.433Z,1.63
2023-03-11T14:06:06.875Z,0.60
2023-03-11T14:08:38.543Z,1.60
2023-03-11T14:11:10.753Z,1.75
2023-03-11T14:13:41.765Z,3.30
2023-03-11T14:16:22.576Z,4.35
2023-03-11T14:21:28.249Z,3.20
2023-03-11T14:23:55.874Z,2.22
2023-03-11T14:26:26.199Z,2.90
2023-03-11T14:28:55.803Z,1.88
2023-03-11T14:31:32.621Z,1.25
2023-03-11T14:34:04.799Z,1.63
2023-03-11T14:36:40.344Z,2.85
2023-03-11T14:39:22.548Z,2.15
2023-03-11T14:41:52.664Z,3.15
2023-03-11T14:44:20.087Z,2.22
2023-03-11T14:46:49.738Z,2.10
2023-03-11T14:49:21.180Z,3.58
2023-03-11T14:52:00.472Z,2.33
2023-03-11T14:54:32.043Z,2.33
2023-03-11T14:57:18.940Z,1.90
2023-03-11T14:59:49.541Z,7.65
2023-03-11T15:02:42.676Z,1.70
2023-03-11T15:05:20.987Z,4.80
2023-03-11T15:07:50.549Z,2.83
2023-03-11T15:10:16.988Z,1.08
2023-03-11T15:12:45.638Z,4.65
2023-03-11T15:15:38.559Z,3.90
2023-03-11T15:18:21.473Z,1.17
2023-03-11T15:21:21.019Z,2.65
2023-03-11T15:23:48.993Z,4.20
2023-03-11T15:26:19.586Z,1.38
2023-03-11T15:28:46.014Z,1.45
2023-03-11T15:31:21.301Z,2.38
2023-03-11T15:33:51.798Z,2.58
2023-03-11T15:36:32.724Z,2.33
2023-03-11T15:39:13.739Z,3.15
2023-03-11T15:42:03.640Z,2.55
2023-03-11T15:44:43.109Z,3.50
2023-03-11T15:47:15.397Z,2.83
2023-03-11T15:49:45.341Z,2.20
2023-03-11T15:52:12.383Z,2.45
2023-03-11T15:54:39.699Z,1.42
2023-03-11T15:57:10.597Z,3.15
2023-03-11T15:59:38.569Z,2.05
2023-03-11T16:02:21.067Z,2.22
2023-03-11T16:04:47.709Z,2.83
2023-03-11T16:07:14.373Z,2.22
2023-03-11T16:09:40.846Z,1.55
2023-03-11T16:12:22.168Z,1.35
2023-03-11T16:14:51.344Z,1.15
2023-03-11T16:17:18.995Z,0.90
2023-03-11T16:19:47.986Z,3.60
2023-03-11T16:22:31.073Z,3.35
2023-03-11T16:24:59.563Z,1.05
2023-03-11T16:27:26.023Z,3.38
2023-03-11T16:29:52.446Z,2.50
2023-03-11T16:32:18.908Z,2.70
2023-03-11T16:34:45.626Z,1.58
2023-03-11T16:37:16.171Z,2.08
2023-03-11T16:39:42.698Z,3.00
2023-03-11T16:42:09.802Z,1.17
2023-03-11T16:44:36.243Z,1.83
2023-03-11T16:47:02.640Z,2.53
2023-03-11T16:49:29.263Z,3.50
2023-03-11T16:51:55.801Z,2.22
2023-03-11T16:54:22.434Z,3.25
2023-03-11T16:56:48.879Z,2.20
2023-03-11T16:59:15.376Z,4.65
2023-03-11T17:01:42.200Z,2.90
2023-03-11T17:04:08.703Z,2.65
2023-03-11T17:06:35.222Z,3.45
2023-03-11T17:09:01.803Z,3.10
2023-03-11T17:11:30.306Z,3.08
2023-03-11T17:14:10.105Z,3.60
2023-03-11T17:16:42.452Z,2.22
2023-03-11T17:19:08.965Z,3.00
2023-03-11T17:21:35.439Z,6.00
2023-03-11T17:24:01.934Z,3.28
2023-03-11T17:26:30.925Z,2.78
2023-03-11T17:28:57.530Z,4.38
2023-03-11T17:31:24.198Z,7.10
2023-03-11T17:33:50.750Z,6.30
2023-03-11T17:36:18.056Z,5.15
2023-03-11T17:38:46.142Z,7.53
2023-03-11T17:41:15.505Z,3.38
2023-03-11T17:43:43.087Z,4.38
2023-03-11T17:46:14.203Z,5.85
2023-03-11T17:48:45.854Z,6.32
2023-03-11T17:51:15.687Z,5.43
2023-03-11T17:53:45.807Z,7.65
2023-03-11T17:56:14.518Z,4.97
2023-03-11T17:58:40.987Z,4.60
2023-03-11T18:01:16.359Z,4.68
2023-03-11T18:03:43.198Z,3.03
2023-03-11T18:06:11.102Z,7.57
2023-03-11T18:08:37.651Z,6.18
2023-03-11T18:11:06.803Z,4.65
2023-03-11T18:13:34.438Z,5.13
2023-03-11T18:16:05.194Z,5.60
2023-03-11T18:18:32.904Z,5.85
2023-03-11T18:21:11.646Z,6.40
2023-03-11T18:23:39.221Z,8.60
2023-03-11T18:26:07.715Z,6.18
2023-03-11T18:28:35.297Z,5.18
2023-03-11T18:31:29.800Z,9.52
2023-03-11T18:34:02.697Z,7.95
2023-03-11T18:36:32.328Z,4.80
2023-03-11T18:39:00.321Z,5.40
2023-03-11T18:41:30.059Z,6.13
2023-03-11T18:43:57.782Z,7.65
2023-03-11T18:46:26.264Z,9.82
2023-03-11T18:48:53.815Z,10.68
2023-03-11T18:51:20.466Z,9.52
2023-03-11T18:53:46.931Z,11.00
2023-03-11T18:56:15.960Z,11.35
2023-03-11T18:58:43.110Z,8.40
2023-03-11T19:01:15.686Z,9.20
2023-03-11T19:03:43.287Z,8.43
2023-03-11T19:06:12.423Z,8.02
2023-03-11T19:08:39.611Z,12.20
2023-03-11T19:11:14.623Z,8.13
2023-03-11T19:13:47.107Z,8.60
2023-03-11T19:16:16.187Z,8.30
2023-03-11T19:18:42.772Z,8.02
2023-03-11T19:21:12.301Z,11.45
2023-03-11T19:23:38.899Z,6.85
2023-03-11T19:26:06.082Z,8.98
2023-03-11T19:28:32.695Z,10.07
2023-03-11T19:30:59.699Z,9.48
2023-03-11T19:33:26.770Z,7.97
2023-03-11T19:35:58.430Z,7.63
2023-03-11T19:38:26.163Z,7.60
2023-03-11T19:41:14.288Z,8.13
2023-03-11T19:43:41.801Z,10.38
2023-03-11T19:46:12.180Z,11.18
2023-03-11T19:48:38.840Z,12.23
2023-03-11T19:51:05.927Z,9.98
2023-03-11T19:53:34.077Z,13.45
2023-03-11T19:56:01.485Z,12.52
2023-03-11T19:58:30.459Z,15.30
2023-03-11T20:03:25.436Z,13.75
2023-03-11T20:05:54.681Z,13.45
2023-03-11T20:10:50.252Z,19.23
2023-03-11T20:13:20.123Z,21.38
2023-03-11T20:15:47.058Z,19.60
2023-03-11T20:18:13.723Z,18.75
2023-03-11T20:20:43.044Z,22.75
2023-03-11T20:23:09.826Z,22.98
2023-03-11T20:25:39.053Z,21.23
2023-03-11T20:28:05.865Z,27.38
2023-03-11T20:30:32.435Z,24.77
2023-03-11T20:32:58.955Z,28.85
2023-03-11T20:35:25.470Z,25.45
2023-03-11T20:37:52.017Z,28.55
2023-03-11T20:40:19.026Z,27.92
2023-03-11T20:42:47.222Z,32.40
2023-03-11T20:45:17.451Z,23.65
2023-03-11T20:47:44.420Z,22.75
2023-03-11T20:50:12.553Z,24.13
2023-03-11T20:52:39.316Z,22.90
2023-03-11T20:55:08.292Z,25.15
2023-03-11T20:57:35.117Z,22.05
2023-03-11T21:00:01.656Z,21.55
2023-03-11T21:02:30.804Z,22.50
2023-03-11T21:04:57.491Z,20.65
2023-03-11T21:07:24.017Z,23.08
2023-03-11T21:09:54.383Z,24.63
2023-03-11T21:12:21.852Z,26.05
2023-03-11T21:14:48.499Z,25.70
2023-03-11T21:17:15.550Z,22.08
2023-03-11T21:19:42.228Z,18.63
2023-03-11T21:22:08.965Z,21.33
2023-03-11T21:24:35.408Z,21.60
2023-03-11T21:27:02.096Z,21.20
2023-03-11T21:29:30.624Z,18.40
2023-03-11T21:31:58.506Z,18.42
2023-03-11T21:34:25.092Z,22.85
2023-03-11T21:36:51.583Z,19.80
2023-03-11T21:39:18.341Z,24.17
2023-03-11T21:41:44.878Z,22.98
2023-03-11T21:44:11.424Z,19.83
2023-03-11T21:46:38.210Z,19.77
2023-03-11T21:49:04.867Z,23.95
2023-03-11T21:51:31.422Z,18.40
2023-03-11T21:53:59.135Z,17.88
2023-03-11T21:56:25.774Z,17.10
2023-03-11T21:58:53.675Z,18.08
2023-03-11T22:01:20.284Z,14.52
2023-03-11T22:03:48.028Z,16.20
2023-03-11T22:06:15.573Z,14.80
2023-03-11T22:08:44.965Z,15.25
2023-03-11T22:13:45.575Z,19.90
2023-03-11T22:16:12.513Z,15.45
2023-03-11T22:18:39.720Z,21.80
2023-03-11T22:21:07.221Z,15.35
2023-03-11T22:23:35.235Z,16.05
2023-03-11T22:26:02.676Z,13.40
2023-03-11T22:28:29.569Z,15.52
2023-03-11T22:30:56.073Z,16.85
2023-03-11T22:33:22.634Z,13.85
2023-03-11T22:35:57.328Z,17.83
2023-03-11T22:38:24.113Z,15.95
2023-03-11T22:40:51.380Z,15.90
2023-03-11T22:43:18.011Z,15.95
2023-03-11T22:45:45.528Z,14.35
2023-03-11T22:48:12.452Z,17.77
2023-03-11T22:50:45.168Z,14.00
2023-03-11T22:53:12.751Z,14.60
2023-03-11T22:55:44.599Z,17.83
2023-03-11T22:58:11.498Z,12.30
2023-03-11T23:00:38.179Z,13.55
2023-03-11T23:03:04.752Z,12.07
2023-03-11T23:05:31.272Z,12.93
2023-03-11T23:07:57.742Z,13.00
2023-03-11T23:10:24.224Z,12.45
2023-03-11T23:12:50.673Z,11.20
2023-03-11T23:15:19.244Z,15.55
2023-03-11T23:17:46.145Z,11.93
2023-03-11T23:20:15.623Z,14.02
2023-03-11T23:22:42.523Z,11.32
2023-03-11T23:25:13.260Z,13.05
2023-03-11T23:27:41.736Z,12.55
2023-03-11T23:30:10.599Z,15.93
2023-03-11T23:32:37.097Z,12.68
2023-03-11T23:35:04.228Z,14.90
2023-03-11T23:37:30.745Z,15.30
2023-03-11T23:39:57.293Z,13.48
2023-03-11T23:42:26.136Z,12.00
2023-03-11T23:44:53.407Z,11.93
2023-03-11T23:47:19.861Z,12.20
2023-03-11T23:49:46.298Z,13.85
2023-03-11T23:52:12.689Z,15.32
2023-03-11T23:54:39.094Z,16.45
2023-03-11T23:57:05.561Z,19.83
2023-03-11T23:59:32.084Z,16.10
